Time;durP1;ratioP1;P1;durP2;ratioP2;P2;SDS_P1;SDS_P2;PMS_P1;PMS_P2;Temp;Humidity;BMP_temperature;BMP_pressure;BME280_temperature;BME280_humidity;BME280_pressure;Samples;Min_cycle;Max_cycle;Signal;HPM_P1;HPM_P2
2022/10/15 00:00:38;;;;;;;9.93;8.80;;;13.90;99.90;;;;;;5045052;28;20219;-55
2022/10/15 00:03:05;;;;;;;14.13;8.90;;;13.90;99.90;;;;;;5035846;28;20199;-52
2022/10/15 00:05:35;;;;;;;12.07;9.53;;;13.90;99.90;;;;;;5043466;28;20206;-49
2022/10/15 00:08:02;;;;;;;15.17;10.30;;;13.90;99.90;;;;;;5028448;28;20284;-51
2022/10/15 00:10:29;;;;;;;12.53;9.00;;;14.00;99.90;;;;;;5044164;28;20215;-56
2022/10/15 00:12:56;;;;;;;12.10;10.20;;;14.00;99.90;;;;;;5035503;28;20210;-55
2022/10/15 00:15:23;;;;;;;11.97;9.07;;;14.00;99.90;;;;;;5043537;28;20563;-52
2022/10/15 00:17:50;;;;;;;11.73;9.50;;;14.00;99.90;;;;;;5035793;28;20203;-54
2022/10/15 00:20:17;;;;;;;13.17;9.93;;;14.00;99.90;;;;;;5031887;28;20228;-51
2022/10/15 00:22:46;;;;;;;12.70;9.63;;;14.00;99.90;;;;;;5032868;28;20326;-53
2022/10/15 00:25:12;;;;;;;12.47;10.33;;;14.00;99.90;;;;;;5036039;28;20198;-51
2022/10/15 00:27:39;;;;;;;16.73;11.27;;;14.00;99.90;;;;;;5043259;28;20203;-55
2022/10/15 00:30:07;;;;;;;14.47;11.50;;;14.00;99.90;;;;;;5036831;28;20215;-55
2022/10/15 00:32:34;;;;;;;16.57;12.23;;;14.00;99.90;;;;;;5058456;28;20230;-50
2022/10/15 00:35:00;;;;;;;14.13;11.67;;;14.00;99.90;;;;;;5034507;28;20191;-51
2022/10/15 00:37:27;;;;;;;17.23;12.13;;;14.00;99.90;;;;;;5044519;28;20202;-52
2022/10/15 00:39:56;;;;;;;14.33;11.73;;;14.10;99.90;;;;;;5025284;28;20696;-54
2022/10/15 00:42:23;;;;;;;14.13;11.23;;;14.10;99.90;;;;;;5040068;28;20195;-53
2022/10/15 00:44:54;;;;;;;15.50;11.77;;;14.10;99.90;;;;;;5033895;28;20221;-53
2022/10/15 00:47:27;;;;;;;15.97;12.10;;;14.10;99.90;;;;;;5042265;28;20292;-50
2022/10/15 00:50:02;;;;;;;17.27;12.47;;;14.10;99.90;;;;;;5033037;28;20234;-54
2022/10/15 00:52:45;;;;;;;15.90;12.47;;;14.10;99.90;;;;;;5043790;28;20225;-49
2022/10/15 00:55:16;;;;;;;17.50;13.07;;;14.20;99.90;;;;;;5029704;28;20556;-54
2022/10/15 00:57:44;;;;;;;14.57;12.03;;;14.10;99.90;;;;;;5037762;28;20565;-55
2022/10/15 01:00:14;;;;;;;19.70;12.40;;;14.10;99.90;;;;;;5030645;28;20230;-54
2022/10/15 01:02:41;;;;;;;16.87;12.63;;;14.10;99.90;;;;;;5035129;28;20188;-54
2022/10/15 01:05:08;;;;;;;18.27;13.33;;;14.20;99.90;;;;;;5030077;28;20211;-54
2022/10/15 01:07:35;;;;;;;19.63;13.67;;;14.20;99.90;;;;;;5043343;28;20200;-43
2022/10/15 01:10:03;;;;;;;16.97;12.97;;;14.20;99.90;;;;;;5026399;28;20215;-44
2022/10/15 01:12:43;;;;;;;22.60;14.03;;;14.20;99.90;;;;;;5043925;28;20262;-44
2022/10/15 01:15:16;;;;;;;19.57;14.40;;;14.20;99.90;;;;;;5023221;28;20227;-45
2022/10/15 01:17:48;;;;;;;21.70;15.70;;;14.20;99.90;;;;;;5041316;28;20230;-41
2022/10/15 01:20:41;;;;;;;22.73;15.13;;;14.20;99.90;;;;;;5033603;28;20244;-43
2022/10/15 01:23:31;;;;;;;23.83;15.73;;;14.20;99.90;;;;;;5055966;28;20219;-42
2022/10/15 01:26:20;;;;;;;21.27;16.67;;;14.20;99.90;;;;;;5026094;28;20211;-44
2022/10/15 01:29:04;;;;;;;22.20;16.23;;;14.20;99.90;;;;;;5039822;28;20690;-42
2022/10/15 01:31:42;;;;;;;20.87;15.23;;;14.10;99.90;;;;;;5036022;28;20223;-45
2022/10/15 01:34:16;;;;;;;22.90;15.97;;;14.10;99.90;;;;;;5034453;28;21032;-43
2022/10/15 01:36:51;;;;;;;24.03;16.87;;;14.10;99.90;;;;;;5037548;28;20207;-44
2022/10/15 01:39:23;;;;;;;23.13;16.80;;;14.10;99.90;;;;;;5028833;28;20219;-44
2022/10/15 01:41:54;;;;;;;23.63;16.30;;;14.10;99.90;;;;;;5039012;28;20188;-44
2022/10/15 01:44:27;;;;;;;23.67;17.03;;;14.10;99.90;;;;;;5040601;28;20195;-43
2022/10/15 01:47:20;;;;;;;25.53;17.37;;;14.10;99.90;;;;;;5022823;28;20284;-45
2022/10/15 01:49:49;;;;;;;25.63;17.23;;;14.10;99.90;;;;;;5035324;28;20220;-45
2022/10/15 01:52:20;;;;;;;22.47;16.53;;;14.10;99.90;;;;;;5037921;28;20338;-44
2022/10/15 01:54:49;;;;;;;24.63;16.17;;;14.10;99.90;;;;;;5024882;28;20270;-46
2022/10/15 01:57:19;;;;;;;22.47;17.60;;;14.10;99.90;;;;;;5043016;28;20286;-44
2022/10/15 01:59:46;;;;;;;25.07;16.87;;;14.10;99.90;;;;;;5038378;28;20251;-44
2022/10/15 02:02:13;;;;;;;23.07;17.10;;;14.10;99.90;;;;;;5039062;28;20206;-46
2022/10/15 02:04:42;;;;;;;24.37;17.27;;;14.10;99.90;;;;;;5041483;28;20238;-42
2022/10/15 02:07:13;;;;;;;27.33;17.43;;;14.10;99.90;;;;;;5032109;28;20218;-44
2022/10/15 02:09:49;;;;;;;24.93;18.43;;;14.00;99.90;;;;;;5037714;28;20235;-46
2022/10/15 02:12:30;;;;;;;29.40;17.90;;;14.00;99.90;;;;;;5040992;28;20747;-46
2022/10/15 02:15:04;;;;;;;22.47;16.70;;;14.00;99.90;;;;;;5040694;28;20812;-45
2022/10/15 02:17:38;;;;;;;28.70;17.77;;;14.00;99.90;;;;;;5038842;28;20556;-42
2022/10/15 02:20:14;;;;;;;24.83;17.93;;;13.90;99.90;;;;;;5042291;28;20892;-44
2022/10/15 02:22:48;;;;;;;25.00;17.90;;;13.90;99.90;;;;;;5039873;28;20211;-42
2022/10/15 02:25:19;;;;;;;25.33;18.27;;;13.90;99.90;;;;;;5029994;28;20217;-43
2022/10/15 02:27:49;;;;;;;24.37;18.67;;;13.90;99.90;;;;;;5042991;28;20227;-46
2022/10/15 02:30:17;;;;;;;26.03;18.13;;;13.80;99.90;;;;;;5032991;28;20207;-43
2022/10/15 02:32:48;;;;;;;24.70;17.87;;;13.80;99.90;;;;;;5037726;28;20744;-46
2022/10/15 02:35:16;;;;;;;28.03;18.97;;;13.80;99.90;;;;;;5034754;28;20687;-42
2022/10/15 02:37:47;;;;;;;28.57;18.57;;;13.70;99.90;;;;;;5037363;28;20199;-42
2022/10/15 02:40:19;;;;;;;26.47;18.50;;;13.80;99.90;;;;;;5032413;28;20297;-42
2022/10/15 02:42:47;;;;;;;27.70;18.77;;;13.70;99.90;;;;;;5042630;28;20298;-48
2022/10/15 02:45:13;;;;;;;26.53;18.57;;;13.70;99.90;;;;;;5034038;28;20199;-43
2022/10/15 02:47:41;;;;;;;30.83;20.10;;;13.70;99.90;;;;;;5042133;28;20199;-43
2022/10/15 02:50:08;;;;;;;32.40;20.23;;;13.70;99.90;;;;;;5039441;28;20226;-45
2022/10/15 02:52:37;;;;;;;29.10;20.33;;;13.60;99.90;;;;;;5035001;28;20253;-43
2022/10/15 02:55:04;;;;;;;28.57;19.77;;;13.60;99.90;;;;;;5043992;28;20241;-42
2022/10/15 02:57:32;;;;;;;29.77;20.90;;;13.60;99.90;;;;;;5027328;28;20199;-43
2022/10/15 02:59:59;;;;;;;32.37;21.30;;;13.60;99.90;;;;;;5036362;28;20239;-45
2022/10/15 03:02:27;;;;;;;30.33;19.00;;;13.50;99.90;;;;;;5039220;28;20214;-42
2022/10/15 03:04:54;;;;;;;32.33;20.43;;;13.50;99.90;;;;;;5035368;28;20207;-46
2022/10/15 03:07:22;;;;;;;31.33;20.10;;;13.50;99.90;;;;;;5029230;28;20195;-44
2022/10/15 03:09:51;;;;;;;31.93;21.03;;;13.50;99.90;;;;;;5033466;28;20215;-42
2022/10/15 03:12:19;;;;;;;33.53;20.10;;;13.50;99.90;;;;;;5019227;28;20243;-44
2022/10/15 03:14:47;;;;;;;30.33;20.23;;;13.50;99.90;;;;;;5033608;28;20740;-45
2022/10/15 03:17:14;;;;;;;32.57;21.10;;;13.50;99.90;;;;;;5033368;28;20198;-44
2022/10/15 03:19:41;;;;;;;28.67;19.50;;;13.40;99.90;;;;;;5032730;28;20227;-44
2022/10/15 03:22:08;;;;;;;30.50;19.20;;;13.40;99.90;;;;;;5043159;28;20218;-43
2022/10/15 03:24:43;;;;;;;32.67;19.60;;;13.30;99.90;;;;;;5033300;28;20373;-42
2022/10/15 03:27:12;;;;;;;29.63;19.17;;;13.30;99.90;;;;;;5037470;28;20586;-45
2022/10/15 03:29:39;;;;;;;26.17;17.77;;;13.20;99.90;;;;;;5037049;28;20334;-42
2022/10/15 03:32:06;;;;;;;34.63;20.20;;;13.20;99.90;;;;;;5033169;28;20227;-44
2022/10/15 03:34:33;;;;;;;33.10;19.60;;;13.20;99.90;;;;;;5029549;28;20924;-42
2022/10/15 03:37:01;;;;;;;31.47;19.53;;;13.10;99.90;;;;;;5034282;28;20219;-45
2022/10/15 03:39:29;;;;;;;29.67;19.80;;;13.10;99.90;;;;;;5031417;28;20215;-42
2022/10/15 03:42:01;;;;;;;30.70;19.53;;;13.10;99.90;;;;;;5043514;28;20219;-43
2022/10/15 03:44:36;;;;;;;32.13;19.93;;;13.00;99.90;;;;;;5027104;28;20719;-42
2022/10/15 03:47:10;;;;;;;31.40;19.20;;;13.00;99.90;;;;;;5037647;28;20196;-46
2022/10/15 03:49:47;;;;;;;28.70;18.20;;;13.00;99.90;;;;;;5035369;28;20223;-45
2022/10/15 03:52:14;;;;;;;29.97;18.87;;;12.90;99.90;;;;;;5035573;28;20219;-42
2022/10/15 03:54:43;;;;;;;29.00;18.87;;;12.90;99.90;;;;;;5028914;28;20212;-44
2022/10/15 03:57:10;;;;;;;26.83;17.87;;;12.90;99.90;;;;;;5035444;28;20679;-45
2022/10/15 03:59:45;;;;;;;27.50;16.87;;;12.90;99.90;;;;;;5028760;28;20346;-43
2022/10/15 04:02:11;;;;;;;29.50;17.57;;;12.90;99.90;;;;;;5041194;28;20202;-47
2022/10/15 04:04:38;;;;;;;27.33;16.93;;;12.80;99.90;;;;;;5034192;28;20915;-43
2022/10/15 04:07:05;;;;;;;23.33;16.70;;;12.80;99.90;;;;;;5035681;28;20199;-46
2022/10/15 04:09:33;;;;;;;27.00;17.53;;;12.80;99.90;;;;;;5028284;28;20238;-46
2022/10/15 04:12:21;;;;;;;23.37;16.20;;;12.80;99.90;;;;;;5039703;28;20215;-45
2022/10/15 04:14:49;;;;;;;29.83;16.63;;;12.70;99.90;;;;;;5026667;28;20265;-43
2022/10/15 04:17:16;;;;;;;23.60;15.10;;;12.70;99.90;;;;;;5036982;28;20214;-44
2022/10/15 04:19:43;;;;;;;23.97;16.00;;;12.70;99.90;;;;;;5033482;28;20322;-43
2022/10/15 04:22:09;;;;;;;25.17;16.83;;;12.70;99.90;;;;;;5032465;28;20208;-43
2022/10/15 04:24:47;;;;;;;27.87;16.70;;;12.70;99.90;;;;;;5030902;28;20342;-47
2022/10/15 04:27:25;;;;;;;24.90;16.53;;;12.70;99.90;;;;;;5036798;28;20202;-42
2022/10/15 04:29:53;;;;;;;24.77;16.43;;;12.70;99.90;;;;;;5026145;28;20231;-43
2022/10/15 04:32:20;;;;;;;28.43;17.10;;;12.70;99.90;;;;;;5042063;28;20276;-45
2022/10/15 04:34:47;;;;;;;29.40;16.63;;;12.70;99.90;;;;;;5038143;28;20630;-42
2022/10/15 04:37:15;;;;;;;29.13;16.70;;;12.70;99.90;;;;;;5044341;28;20238;-44
2022/10/15 04:39:41;;;;;;;26.83;16.63;;;12.80;99.90;;;;;;5033263;28;20715;-47
2022/10/15 04:42:12;;;;;;;24.93;16.50;;;12.80;99.90;;;;;;5034853;28;20291;-42
2022/10/15 04:44:39;;;;;;;28.70;16.27;;;12.80;99.90;;;;;;5034974;28;20562;-46
2022/10/15 04:47:07;;;;;;;24.77;16.33;;;12.80;99.90;;;;;;5029116;28;20208;-45
2022/10/15 04:49:54;;;;;;;30.20;18.37;;;12.80;99.90;;;;;;5038000;28;20227;-45
2022/10/15 04:52:41;;;;;;;29.27;15.97;;;12.80;99.90;;;;;;5031794;28;20254;-47
2022/10/15 04:55:11;;;;;;;24.60;16.43;;;12.80;99.90;;;;;;5034678;28;20211;-45
2022/10/15 04:57:38;;;;;;;26.80;16.60;;;12.80;99.90;;;;;;5030715;28;20199;-44
2022/10/15 05:00:07;;;;;;;28.53;16.23;;;12.80;99.90;;;;;;5030859;28;20307;-51
2022/10/15 05:02:35;;;;;;;26.13;16.40;;;12.80;99.90;;;;;;5030559;28;20215;-45
2022/10/15 05:05:30;;;;;;;30.93;16.80;;;12.80;99.90;;;;;;5033993;28;20211;-44
2022/10/15 05:08:00;;;;;;;29.40;17.70;;;12.80;99.90;;;;;;5027152;28;20211;-43
2022/10/15 05:10:28;;;;;;;26.10;16.67;;;12.80;99.90;;;;;;5042119;28;20215;-48
2022/10/15 05:12:55;;;;;;;34.90;18.03;;;12.90;99.90;;;;;;5026608;28;20223;-48
2022/10/15 05:15:29;;;;;;;29.40;17.87;;;12.80;99.90;;;;;;5038123;28;20197;-43
2022/10/15 05:17:57;;;;;;;26.63;17.83;;;12.90;99.90;;;;;;5025405;28;20214;-43
2022/10/15 05:20:31;;;;;;;36.10;19.53;;;12.90;99.90;;;;;;5036118;28;20218;-46
2022/10/15 05:22:58;;;;;;;35.97;19.70;;;12.90;99.90;;;;;;5031968;28;23141;-46
2022/10/15 05:25:30;;;;;;;33.47;19.80;;;12.90;99.90;;;;;;5040526;28;20210;-46
2022/10/15 05:27:57;;;;;;;34.60;19.80;;;12.90;99.90;;;;;;5027726;28;20207;-44
2022/10/15 05:30:23;;;;;;;38.70;20.47;;;12.90;99.90;;;;;;5038205;28;20415;-45
2022/10/15 05:32:52;;;;;;;38.60;20.30;;;12.90;99.90;;;;;;5020448;28;20243;-44
2022/10/15 05:35:22;;;;;;;38.83;20.20;;;12.80;99.90;;;;;;5037219;28;20191;-45
2022/10/15 05:37:54;;;;;;;37.03;21.20;;;12.90;99.90;;;;;;5035317;28;20212;-46
2022/10/15 05:40:22;;;;;;;34.67;20.27;;;12.90;99.90;;;;;;5032411;28;20230;-46
2022/10/15 05:43:02;;;;;;;44.83;21.00;;;12.90;99.90;;;;;;5034692;28;20744;-43
2022/10/15 05:45:28;;;;;;;44.70;21.50;;;12.80;99.90;;;;;;5031888;28;20230;-48
2022/10/15 05:48:01;;;;;;;41.97;21.47;;;12.80;99.90;;;;;;5035827;28;20199;-44
2022/10/15 05:50:30;;;;;;;40.83;20.93;;;12.80;99.90;;;;;;5016534;28;20935;-45
2022/10/15 05:52:58;;;;;;;39.03;22.07;;;12.80;99.90;;;;;;5033061;28;20697;-44
2022/10/15 05:55:33;;;;;;;42.33;22.93;;;12.80;99.90;;;;;;5029280;28;20203;-43
2022/10/15 05:58:02;;;;;;;38.00;19.87;;;12.80;99.90;;;;;;5034216;28;20219;-44
2022/10/15 06:00:28;;;;;;;44.03;21.77;;;12.80;99.90;;;;;;5027332;28;20222;-46
2022/10/15 06:02:55;;;;;;;45.70;20.87;;;12.80;99.90;;;;;;5040452;28;20210;-43
2022/10/15 06:05:24;;;;;;;43.10;20.80;;;12.80;99.90;;;;;;5021727;28;21108;-45
2022/10/15 06:07:52;;;;;;;42.83;21.67;;;12.80;99.90;;;;;;5042206;28;20203;-45
2022/10/15 06:10:19;;;;;;;44.00;21.90;;;12.80;99.90;;;;;;5027781;28;20552;-43
2022/10/15 06:12:49;;;;;;;40.80;20.73;;;12.80;99.90;;;;;;5034302;28;20692;-44
2022/10/15 06:15:15;;;;;;;42.50;21.97;;;12.80;99.90;;;;;;5035522;28;20214;-46
2022/10/15 06:17:42;;;;;;;42.03;22.50;;;12.80;99.90;;;;;;5040855;28;20179;-43
2022/10/15 06:20:10;;;;;;;39.97;21.47;;;12.80;99.90;;;;;;5016240;28;20940;-48
2022/10/15 06:22:38;;;;;;;42.37;21.03;;;12.80;99.90;;;;;;5033626;28;20200;-44
2022/10/15 06:25:08;;;;;;;45.23;22.60;;;12.80;99.90;;;;;;5030579;28;20221;-46
2022/10/15 06:27:35;;;;;;;44.23;22.03;;;12.80;99.90;;;;;;5034408;28;20212;-45
2022/10/15 06:30:02;;;;;;;41.50;22.27;;;12.80;99.90;;;;;;5035556;28;20237;-44
2022/10/15 06:32:29;;;;;;;42.13;21.73;;;12.80;99.90;;;;;;5031623;28;20198;-45
2022/10/15 06:34:56;;;;;;;40.90;22.43;;;12.80;99.90;;;;;;5018104;28;20216;-46
2022/10/15 06:37:23;;;;;;;45.53;21.93;;;12.80;99.90;;;;;;5039988;28;20218;-44
2022/10/15 06:39:51;;;;;;;37.83;22.07;;;12.80;99.90;;;;;;5031663;28;20646;-45
2022/10/15 06:42:19;;;;;;;43.13;24.00;;;12.90;99.90;;;;;;5032776;28;20883;-46
2022/10/15 06:44:47;;;;;;;47.07;24.23;;;12.90;99.90;;;;;;5030941;28;20667;-43
2022/10/15 06:47:16;;;;;;;45.67;23.30;;;12.90;99.90;;;;;;5037806;28;20214;-47
2022/10/15 06:49:45;;;;;;;50.97;25.93;;;12.90;99.90;;;;;;5034696;28;20321;-46
2022/10/15 06:52:11;;;;;;;44.33;23.43;;;12.80;99.90;;;;;;5033645;28;20267;-43
2022/10/15 06:54:38;;;;;;;49.93;24.63;;;12.80;99.90;;;;;;5030236;28;20223;-46
2022/10/15 06:57:05;;;;;;;50.27;23.33;;;12.90;99.90;;;;;;5019299;28;20212;-44
2022/10/15 06:59:33;;;;;;;51.30;25.23;;;12.90;99.90;;;;;;5041841;28;20215;-51
2022/10/15 07:02:01;;;;;;;42.83;24.50;;;12.80;99.90;;;;;;5024070;28;20861;-43
2022/10/15 07:04:28;;;;;;;50.03;25.10;;;12.80;99.90;;;;;;5038782;28;20202;-46
2022/10/15 07:06:54;;;;;;;49.07;25.07;;;12.90;99.90;;;;;;5027838;28;20215;-46
2022/10/15 07:09:22;;;;;;;54.53;25.10;;;12.80;99.90;;;;;;5038031;28;20567;-46
2022/10/15 07:11:49;;;;;;;46.30;23.90;;;12.90;99.90;;;;;;5037535;28;20882;-46
2022/10/15 07:14:15;;;;;;;48.87;25.23;;;12.80;99.90;;;;;;5035970;28;20224;-42
2022/10/15 07:16:43;;;;;;;49.20;24.33;;;12.90;99.90;;;;;;5039976;28;20212;-50
2022/10/15 07:19:10;;;;;;;53.43;25.70;;;12.90;99.90;;;;;;5036267;28;20738;-44
2022/10/15 07:21:37;;;;;;;47.83;24.17;;;12.90;99.90;;;;;;5044118;28;20282;-43
2022/10/15 07:24:05;;;;;;;50.73;24.07;;;12.90;99.90;;;;;;5022013;28;20202;-43
2022/10/15 07:26:33;;;;;;;50.00;23.30;;;12.90;99.90;;;;;;5037759;28;20207;-46
2022/10/15 07:29:03;;;;;;;52.67;24.60;;;12.90;99.90;;;;;;5033157;28;20219;-47
2022/10/15 07:31:30;;;;;;;52.67;24.10;;;13.00;99.90;;;;;;5036563;28;20222;-47
2022/10/15 07:33:58;;;;;;;43.83;23.07;;;13.00;99.90;;;;;;5035311;28;20219;-44
2022/10/15 07:36:26;;;;;;;45.27;23.13;;;13.00;99.90;;;;;;5043811;28;20248;-44
2022/10/15 07:38:53;;;;;;;48.47;23.53;;;13.00;99.90;;;;;;5029271;28;20204;-43
2022/10/15 07:41:20;;;;;;;50.40;23.47;;;13.00;99.90;;;;;;5043796;28;20214;-44
2022/10/15 07:43:48;;;;;;;42.13;21.57;;;13.00;99.90;;;;;;5036820;28;20203;-47
2022/10/15 07:46:14;;;;;;;44.00;23.30;;;13.00;99.90;;;;;;5033503;28;20198;-43
2022/10/15 07:48:41;;;;;;;45.57;21.40;;;13.10;99.90;;;;;;5034452;28;20217;-47
2022/10/15 07:51:11;;;;;;;43.00;20.77;;;13.10;99.90;;;;;;5040419;28;20223;-43
2022/10/15 07:53:37;;;;;;;43.03;21.97;;;13.10;99.90;;;;;;5019206;28;20713;-44
2022/10/15 07:56:07;;;;;;;43.63;22.00;;;13.10;99.90;;;;;;5035640;28;20230;-44
2022/10/15 07:58:36;;;;;;;40.47;20.83;;;13.20;99.90;;;;;;5038005;28;20555;-44
2022/10/15 08:01:04;;;;;;;40.20;20.97;;;13.20;99.90;;;;;;5029347;28;20223;-46
2022/10/15 08:03:31;;;;;;;42.90;21.77;;;13.20;99.90;;;;;;5038128;28;20211;-45
2022/10/15 08:06:00;;;;;;;40.77;20.97;;;13.20;99.90;;;;;;5039980;28;20605;-43
2022/10/15 08:08:30;;;;;;;38.77;21.63;;;13.20;99.90;;;;;;5031562;28;20290;-43
2022/10/15 08:10:57;;;;;;;39.90;20.40;;;13.20;99.90;;;;;;5038857;28;20215;-42
2022/10/15 08:13:24;;;;;;;37.03;20.93;;;13.30;99.90;;;;;;5037640;28;20208;-44
2022/10/15 08:15:54;;;;;;;41.83;20.70;;;13.40;99.90;;;;;;5035111;28;20226;-45
2022/10/15 08:18:21;;;;;;;39.33;21.50;;;13.60;99.90;;;;;;5024548;28;20626;-44
2022/10/15 08:20:48;;;;;;;40.17;20.87;;;13.70;99.90;;;;;;5037222;28;20241;-47
2022/10/15 08:23:16;;;;;;;36.47;20.07;;;13.80;99.90;;;;;;5024543;28;20202;-50
2022/10/15 08:25:44;;;;;;;37.33;20.03;;;13.90;99.90;;;;;;5027238;28;20230;-43
2022/10/15 08:28:12;;;;;;;36.03;19.17;;;14.00;99.90;;;;;;5034110;28;20200;-44
2022/10/15 08:30:39;;;;;;;32.67;19.10;;;13.90;99.90;;;;;;5027077;28;20571;-43
2022/10/15 08:33:11;;;;;;;31.87;18.90;;;14.00;99.90;;;;;;5033055;28;20223;-48
2022/10/15 08:35:42;;;;;;;30.20;17.43;;;13.90;99.90;;;;;;5035270;28;20200;-46
2022/10/15 08:38:09;;;;;;;32.70;19.23;;;13.90;99.90;;;;;;5035862;28;20321;-44
2022/10/15 08:40:36;;;;;;;32.53;16.80;;;13.90;99.90;;;;;;5025245;28;20215;-43
2022/10/15 08:43:05;;;;;;;31.13;18.70;;;13.80;99.90;;;;;;5043871;28;20724;-43
2022/10/15 08:45:35;;;;;;;31.30;17.50;;;13.90;99.90;;;;;;5039628;28;20858;-43
2022/10/15 08:48:05;;;;;;;29.33;18.33;;;13.90;99.90;;;;;;5039408;28;20291;-43
2022/10/15 08:50:39;;;;;;;27.90;17.00;;;14.00;99.90;;;;;;5022037;28;20222;-47
2022/10/15 08:53:11;;;;;;;32.53;17.70;;;14.10;99.90;;;;;;5033656;28;20206;-44
2022/10/15 08:55:40;;;;;;;29.47;17.67;;;14.20;99.90;;;;;;5020602;28;20612;-46
2022/10/15 08:58:13;;;;;;;30.07;17.17;;;14.30;99.90;;;;;;5037985;28;20946;-43
2022/10/15 09:00:43;;;;;;;25.47;16.60;;;14.30;99.90;;;;;;5030612;28;20223;-48
2022/10/15 09:03:32;;;;;;;27.00;17.00;;;14.30;99.90;;;;;;5034842;28;20967;-44
2022/10/15 09:06:09;;;;;;;28.20;17.50;;;14.30;99.90;;;;;;5033299;28;20690;-47
2022/10/15 09:08:45;;;;;;;31.37;18.03;;;14.30;99.90;;;;;;5043949;28;20198;-45
2022/10/15 09:11:19;;;;;;;29.07;17.27;;;14.40;99.90;;;;;;5021380;28;20211;-43
2022/10/15 09:13:48;;;;;;;29.80;16.77;;;14.40;99.90;;;;;;5041531;28;20635;-48
2022/10/15 09:16:26;;;;;;;30.83;17.27;;;14.50;99.90;;;;;;5043288;28;20700;-44
2022/10/15 09:18:54;;;;;;;27.60;16.67;;;14.60;99.90;;;;;;5036371;28;20209;-45
2022/10/15 09:21:24;;;;;;;27.03;16.57;;;14.50;99.90;;;;;;5036836;28;20223;-42
2022/10/15 09:23:51;;;;;;;24.30;15.13;;;14.60;99.90;;;;;;5040523;28;20197;-45
2022/10/15 09:26:26;;;;;;;24.27;15.10;;;14.70;99.90;;;;;;5029086;28;20916;-43
2022/10/15 09:29:01;;;;;;;20.60;14.23;;;14.80;99.90;;;;;;5031667;28;20214;-46
2022/10/15 09:31:36;;;;;;;24.63;13.97;;;15.00;99.90;;;;;;5024342;28;20920;-43
2022/10/15 09:34:11;;;;;;;21.00;13.83;;;15.10;99.90;;;;;;5028254;28;20218;-44
2022/10/15 09:36:44;;;;;;;20.50;13.70;;;15.10;99.90;;;;;;5030792;28;20734;-50
2022/10/15 09:39:46;;;;;;;20.60;14.00;;;15.10;99.90;;;;;;5031671;28;20196;-48
2022/10/15 09:42:25;;;;;;;23.33;12.90;;;15.20;99.90;;;;;;5021999;28;20209;-43
2022/10/15 09:44:57;;;;;;;21.27;12.90;;;15.20;99.90;;;;;;5028821;28;20261;-44
2022/10/15 09:47:26;;;;;;;22.03;14.17;;;15.30;99.90;;;;;;5026152;28;20191;-44
2022/10/15 09:50:00;;;;;;;22.83;14.10;;;15.30;99.90;;;;;;5031345;28;20221;-44
2022/10/15 09:52:44;;;;;;;19.73;12.63;;;15.30;99.90;;;;;;5025703;28;20287;-49
2022/10/15 09:55:34;;;;;;;19.13;11.93;;;15.30;99.90;;;;;;5025829;28;20720;-47
2022/10/15 09:58:06;;;;;;;16.03;11.00;;;15.30;99.90;;;;;;5021200;28;20247;-46
2022/10/15 10:00:54;;;;;;;18.77;10.73;;;15.40;99.90;;;;;;5024911;28;20234;-48
2022/10/15 10:03:23;;;;;;;17.27;11.50;;;15.40;99.90;;;;;;5028294;28;20200;-54
2022/10/15 10:05:50;;;;;;;16.97;10.53;;;15.40;99.90;;;;;;5028042;28;20198;-54
2022/10/15 10:08:20;;;;;;;15.03;10.27;;;15.50;99.90;;;;;;5033881;28;20200;-55
2022/10/15 10:10:54;;;;;;;15.00;10.10;;;15.50;99.90;;;;;;5036643;28;20298;-50
2022/10/15 10:13:24;;;;;;;21.77;11.57;;;15.60;99.90;;;;;;5027942;28;20306;-54
2022/10/15 10:15:54;;;;;;;13.80;10.40;;;15.60;99.90;;;;;;5041757;28;20200;-54
2022/10/15 10:18:22;;;;;;;16.23;10.67;;;15.70;99.90;;;;;;5036757;28;20203;-55
2022/10/15 10:20:57;;;;;;;19.77;12.10;;;15.80;99.90;;;;;;5042218;28;20231;-52
2022/10/15 10:23:28;;;;;;;17.90;10.93;;;15.80;99.90;;;;;;5036121;28;20199;-53
2022/10/15 10:25:56;;;;;;;16.23;11.63;;;15.90;99.90;;;;;;5039590;28;20200;-51
2022/10/15 10:28:29;;;;;;;19.20;11.47;;;16.00;99.90;;;;;;5028910;28;20203;-50
2022/10/15 10:31:04;;;;;;;17.20;11.20;;;16.00;99.90;;;;;;5039430;28;20296;-54
2022/10/15 10:33:34;;;;;;;19.20;11.77;;;16.00;99.90;;;;;;5035255;28;20359;-49
2022/10/15 10:36:01;;;;;;;16.73;10.27;;;16.10;99.90;;;;;;5044257;28;20214;-53
2022/10/15 10:38:32;;;;;;;16.57;10.20;;;16.10;99.90;;;;;;5032539;28;20192;-52
2022/10/15 10:41:05;;;;;;;16.80;11.07;;;16.10;99.90;;;;;;5046004;28;20219;-52
2022/10/15 10:43:34;;;;;;;20.47;12.00;;;16.20;99.90;;;;;;5033028;28;20874;-54
2022/10/15 10:46:04;;;;;;;18.13;10.87;;;16.20;99.90;;;;;;5031426;28;20216;-55
2022/10/15 10:48:41;;;;;;;15.27;11.43;;;16.30;99.90;;;;;;5034742;28;20219;-52
2022/10/15 10:51:12;;;;;;;14.07;10.43;;;16.30;99.90;;;;;;5043767;28;20210;-53
2022/10/15 10:53:49;;;;;;;16.07;10.17;;;16.20;99.90;;;;;;5038539;28;20222;-51
2022/10/15 10:56:21;;;;;;;15.37;10.20;;;16.20;99.90;;;;;;5041696;28;20683;-55
2022/10/15 10:58:48;;;;;;;16.33;11.37;;;16.20;99.90;;;;;;5023085;28;20199;-56
2022/10/15 11:01:17;;;;;;;13.30;9.87;;;16.20;99.90;;;;;;5022211;28;20270;-54
2022/10/15 11:03:45;;;;;;;15.67;10.97;;;16.30;99.90;;;;;;5021407;28;20773;-53
2022/10/15 11:06:26;;;;;;;13.80;10.53;;;16.30;99.90;;;;;;5032166;28;20218;-52
2022/10/15 11:09:06;;;;;;;14.10;9.23;;;16.30;99.90;;;;;;5025313;28;20895;-53
2022/10/15 11:11:38;;;;;;;15.33;9.87;;;16.40;99.90;;;;;;5026634;28;20207;-48
2022/10/15 11:14:18;;;;;;;12.13;8.80;;;16.40;99.90;;;;;;5026379;28;20990;-57
2022/10/15 11:16:56;;;;;;;13.67;8.80;;;16.50;99.90;;;;;;5018270;28;20208;-56
2022/10/15 11:19:30;;;;;;;13.73;9.30;;;16.50;99.90;;;;;;5027648;28;20214;-55
2022/10/15 11:22:08;;;;;;;15.67;9.20;;;;;;;;;;5031422;28;20210;-54
2022/10/15 11:24:40;;;;;;;10.50;8.97;;;16.60;99.90;;;;;;5027993;28;20206;-59
2022/10/15 11:27:21;;;;;;;12.33;8.07;;;16.60;99.90;;;;;;5033699;28;20203;-56
2022/10/15 11:29:56;;;;;;;10.10;7.60;;;16.70;99.90;;;;;;5029649;28;20948;-48
2022/10/15 11:32:37;;;;;;;11.53;7.03;;;16.70;99.90;;;;;;5022752;28;20203;-50
2022/10/15 11:35:26;;;;;;;8.57;6.70;;;16.80;99.90;;;;;;5025985;28;21796;-52
2022/10/15 11:38:02;;;;;;;12.37;6.80;;;16.90;99.90;;;;;;5026517;28;20200;-49
2022/10/15 11:40:37;;;;;;;9.17;6.57;;;16.90;99.90;;;;;;5027580;28;20234;-53
2022/10/15 11:43:14;;;;;;;10.53;6.67;;;17.00;99.90;;;;;;5035045;28;20210;-48
2022/10/15 11:45:52;;;;;;;6.80;6.10;;;17.10;99.90;;;;;;5028559;28;20199;-53
2022/10/15 11:48:37;;;;;;;8.27;6.30;;;17.10;99.90;;;;;;5025086;28;20215;-53
2022/10/15 11:51:12;;;;;;;6.80;6.17;;;17.20;99.90;;;;;;5031862;28;20223;-56
2022/10/15 11:53:57;;;;;;;7.70;6.20;;;17.20;99.90;;;;;;5030062;28;20199;-56
2022/10/15 11:56:28;;;;;;;10.37;6.10;;;17.20;99.90;;;;;;5017759;28;20815;-53
2022/10/15 11:59:00;;;;;;;8.00;5.37;;;17.20;99.90;;;;;;5021594;28;20235;-57
2022/10/15 12:01:35;;;;;;;7.17;4.53;;;17.10;99.90;;;;;;5022111;28;20220;-52
2022/10/15 12:04:11;;;;;;;6.90;4.20;;;17.20;99.90;;;;;;5023078;28;20684;-56
2022/10/15 12:06:43;;;;;;;6.73;3.20;;;17.30;99.90;;;;;;5025767;28;20203;-58
2022/10/15 12:09:30;;;;;;;3.80;3.40;;;17.50;99.90;;;;;;5062923;28;20213;-55
2022/10/15 12:12:04;;;;;;;5.33;3.27;;;17.50;99.90;;;;;;5036265;28;20227;-54
2022/10/15 12:14:37;;;;;;;6.20;2.93;;;17.50;99.90;;;;;;5034362;28;20226;-53
2022/10/15 12:17:11;;;;;;;3.70;2.97;;;17.50;99.90;;;;;;5032475;28;20209;-56
2022/10/15 12:19:43;;;;;;;3.40;2.60;;;17.50;99.90;;;;;;5019931;28;20302;-51
2022/10/15 12:22:11;;;;;;;3.80;2.40;;;17.40;99.90;;;;;;5037910;28;20302;-54
2022/10/15 12:24:55;;;;;;;4.53;3.10;;;17.40;99.90;;;;;;5031897;28;20184;-54
2022/10/15 12:27:33;;;;;;;4.80;2.47;;;17.50;99.90;;;;;;5030967;28;20664;-56
2022/10/15 12:30:25;;;;;;;5.03;2.27;;;17.40;99.90;;;;;;5042314;28;20214;-55
2022/10/15 12:32:54;;;;;;;2.43;2.00;;;17.40;99.90;;;;;;5031094;28;20225;-55
2022/10/15 12:35:34;;;;;;;5.40;3.03;;;17.50;99.90;;;;;;5020777;28;20207;-55
2022/10/15 12:38:17;;;;;;;3.47;2.17;;;17.60;99.90;;;;;;5037164;28;20547;-52
2022/10/15 12:40:45;;;;;;;3.97;2.23;;;17.70;99.90;;;;;;5029085;28;20207;-53
2022/10/15 12:43:15;;;;;;;3.07;2.30;;;17.70;99.90;;;;;;5029877;28;20203;-53
2022/10/15 12:45:52;;;;;;;4.40;3.47;;;17.70;99.90;;;;;;5033601;28;20190;-55
2022/10/15 12:48:31;;;;;;;8.87;5.90;;;17.70;99.90;;;;;;5031715;28;20203;-53
2022/10/15 12:51:38;;;;;;;4.57;2.50;;;17.80;99.90;;;;;;5027963;28;20872;-49